Time;durP1;ratioP1;P1;durP2;ratioP2;P2;SDS_P1;SDS_P2;PMS_P1;PMS_P2;Temp;Humidity;BMP_temperature;BMP_pressure;BME280_temperature;BME280_humidity;BME280_pressure;Samples;Min_cycle;Max_cycle;Signal;HPM_P1;HPM_P2
2021/12/26 00:01:52;;;;;;;;;;;;;;;-5.41;88.26;97875.69;1743563;80;24773;-84
2021/12/26 00:04:19;;;;;;;;;;;;;;;-5.45;88.20;97868.50;1735888;80;22033;-84
2021/12/26 00:06:45;;;;;;;;;;;;;;;-5.50;88.14;97873.67;1732984;81;26063;-84
2021/12/26 00:09:12;;;;;;;;;;;;;;;-5.52;88.05;97877.13;1730886;82;24755;-84
2021/12/26 00:11:38;;;;;;;;;;;;;;;-5.52;88.01;97875.43;1731054;81;20252;-84
2021/12/26 00:14:05;;;;;;;;;;;;;;;-5.58;87.94;97875.52;1744078;80;25606;-84
2021/12/26 00:16:32;;;;;;;;;;;;;;;-5.64;87.86;97873.06;1757726;80;21948;-84
2021/12/26 00:18:58;;;;;;;;;;;;;;;-5.72;87.77;97876.14;1751451;81;26118;-84
2021/12/26 00:21:24;;;;;;;;;;;;;;;-5.76;87.68;97870.68;1751176;80;24524;-84
2021/12/26 00:23:50;;;;;;;;;;;;;;;-5.80;87.59;97870.33;1749686;81;20566;-84
2021/12/26 00:26:16;;;;;;;;;;;;;;;-5.80;87.55;97869.48;1757926;81;24775;-84
2021/12/26 00:28:43;;;;;;;;;;;;;;;-5.84;87.49;97875.06;1753414;81;21946;-84
2021/12/26 00:31:09;;;;;;;;;;;;;;;-5.88;87.45;97867.48;1720644;81;25922;-84
2021/12/26 00:33:35;;;;;;;;;;;;;;;-5.91;87.39;97879.85;1753069;81;24464;-85
2021/12/26 00:36:01;;;;;;;;;;;;;;;-5.94;87.32;97884.97;1721875;81;20260;-86
2021/12/26 00:38:29;;;;;;;;;;;;;;;-5.98;87.28;97882.06;1756558;81;24956;-85
2021/12/26 00:40:56;;;;;;;;;;;;;;;-5.99;87.25;97885.47;1753804;81;22615;-84
2021/12/26 00:43:22;;;;;;;;;;;;;;;-6.01;87.21;97885.94;1754963;80;25966;-85
2021/12/26 00:45:48;;;;;;;;;;;;;;;-6.02;87.18;97882.97;1749472;81;24719;-85
2021/12/26 00:48:14;;;;;;;;;;;;;;;-6.00;87.18;97883.34;1755055;80;20340;-85
2021/12/26 00:50:42;;;;;;;;;;;;;;;-6.01;87.15;97882.12;1757086;80;24731;-85
2021/12/26 00:53:08;;;;;;;;;;;;;;;-6.00;87.15;97880.80;1750746;81;22067;-85
2021/12/26 00:55:35;;;;;;;;;;;;;;;-6.00;87.14;97880.80;1762688;81;26148;-85
2021/12/26 00:58:01;;;;;;;;;;;;;;;-6.03;87.12;97876.19;1755698;81;24409;-85
2021/12/26 01:00:29;;;;;;;;;;;;;;;-6.05;87.08;97884.27;1754864;81;20272;-85
2021/12/26 01:02:56;;;;;;;;;;;;;;;-6.11;87.05;97878.02;1747086;81;25458;-85
2021/12/26 01:05:24;;;;;;;;;;;;;;;-6.12;87.02;97880.14;1760504;80;22033;-85
2021/12/26 01:08:01;;;;;;;;;;;;;;;-6.10;86.99;97874.58;1761594;80;26097;-85
2021/12/26 01:10:31;;;;;;;;;;;;;;;-6.08;87.00;97876.69;1748977;81;24671;-85
2021/12/26 01:12:57;;;;;;;;;;;;;;;-6.00;87.05;97870.61;1755432;81;20234;-85
2021/12/26 01:15:23;;;;;;;;;;;;;;;-5.86;87.15;97873.38;1755759;80;24699;-86
2021/12/26 01:17:55;;;;;;;;;;;;;;;-5.66;87.30;97867.56;1719555;81;21904;-85
2021/12/26 01:20:28;;;;;;;;;;;;;;;-5.59;87.39;97868.73;1743569;81;26082;-85
2021/12/26 01:22:48;;;;;;;;;;;;;;;-5.56;87.43;97866.13;1740177;81;23930;-84
2021/12/26 01:25:14;;;;;;;;;;;;;;;-5.52;87.49;97869.48;1747294;81;20286;-85
2021/12/26 01:27:40;;;;;;;;;;;;;;;-5.58;87.49;97858.95;1745251;81;24827;-86
2021/12/26 01:30:07;;;;;;;;;;;;;;;-5.47;87.57;97860.06;1743065;80;22082;-85
2021/12/26 01:32:33;;;;;;;;;;;;;;;-5.30;87.65;97855.97;1743183;81;26107;-85
2021/12/26 01:34:59;;;;;;;;;;;;;;;-5.21;87.66;97860.91;1747783;81;20861;-84
2021/12/26 01:37:25;;;;;;;;;;;;;;;-5.15;87.64;97862.08;1744943;81;20248;-84
2021/12/26 01:39:51;;;;;;;;;;;;;;;-5.24;87.56;97857.98;1743129;81;24568;-84
2021/12/26 01:42:17;;;;;;;;;;;;;;;-5.27;87.46;97855.90;1748005;80;22059;-85
2021/12/26 01:44:43;;;;;;;;;;;;;;;-5.22;87.46;97861.33;1741310;81;25948;-84
2021/12/26 01:47:10;;;;;;;;;;;;;;;-5.14;87.44;97849.73;1741773;81;24429;-84
2021/12/26 01:49:36;;;;;;;;;;;;;;;-5.16;87.34;97849.76;1743885;81;20503;-84
2021/12/26 01:52:05;;;;;;;;;;;;;;;-5.14;87.26;97848.03;1747766;80;24642;-84
2021/12/26 01:54:49;;;;;;;;;;;;;;;-5.19;87.17;97842.61;1766426;80;21935;-84
2021/12/26 01:57:16;;;;;;;;;;;;;;;-5.28;87.00;97842.73;1780310;79;26079;-84
2021/12/26 01:59:42;;;;;;;;;;;;;;;-5.34;86.81;97844.11;1778838;79;25124;-85
2021/12/26 02:02:09;;;;;;;;;;;;;;;-5.39;86.66;97843.34;1755999;78;21132;-85
2021/12/26 02:04:39;;;;;;;;;;;;;;;-5.41;86.53;97845.94;1808958;77;24718;-85
2021/12/26 02:07:06;;;;;;;;;;;;;;;-5.44;86.40;97842.16;1753737;78;22032;-84
2021/12/26 02:09:33;;;;;;;;;;;;;;;-5.51;86.27;97843.14;1796757;78;26088;-85
2021/12/26 02:11:59;;;;;;;;;;;;;;;-5.69;86.12;97853.17;1796710;78;24385;-85
2021/12/26 02:14:25;;;;;;;;;;;;;;;-5.89;85.93;97848.81;1782717;78;20265;-85
2021/12/26 02:16:51;;;;;;;;;;;;;;;-5.94;85.81;97850.58;1776613;78;24862;-85
2021/12/26 02:19:18;;;;;;;;;;;;;;;-6.10;85.64;97843.59;1783832;78;21992;-85
2021/12/26 02:25:08;;;;;;;;;;;;;;;-5.99;85.54;97840.47;1785576;78;24387;-84
2021/12/26 02:29:54;;;;;;;;;;;;;;;-5.94;85.45;97832.75;1782609;78;24915;-84
2021/12/26 02:32:20;;;;;;;;;;;;;;;-6.02;85.34;97835.43;1783782;78;21922;-84
2021/12/26 02:34:46;;;;;;;;;;;;;;;-6.05;85.25;97830.79;1783147;78;26005;-84
2021/12/26 02:37:12;;;;;;;;;;;;;;;-5.95;85.21;97833.64;1773619;78;20771;-84
2021/12/26 02:39:38;;;;;;;;;;;;;;;-5.85;85.18;97840.68;1784406;78;20205;-84
2021/12/26 02:42:05;;;;;;;;;;;;;;;-5.82;85.13;97840.62;1788510;78;25532;-84
2021/12/26 02:44:31;;;;;;;;;;;;;;;-5.83;85.07;97841.48;1783005;78;22043;-83
2021/12/26 02:46:57;;;;;;;;;;;;;;;-5.86;84.94;97842.38;1789021;78;26044;-84
2021/12/26 02:49:26;;;;;;;;;;;;;;;-5.85;84.88;97846.63;1784451;77;20868;-84
2021/12/26 02:51:53;;;;;;;;;;;;;;;-5.84;84.81;97848.31;1781863;78;20324;-84
2021/12/26 02:54:24;;;;;;;;;;;;;;;-5.84;84.74;97850.02;1776519;78;24795;-84
2021/12/26 02:56:51;;;;;;;;;;;;;;;-5.86;84.70;97856.83;1782522;78;22061;-84
2021/12/26 02:59:17;;;;;;;;;;;;;;;-5.91;84.62;97858.20;1779346;78;26052;-84
2021/12/26 03:01:43;;;;;;;;;;;;;;;-5.88;84.62;97855.59;1777788;78;24468;-86
2021/12/26 03:04:10;;;;;;;;;;;;;;;-5.90;84.56;97857.34;1714601;81;20485;-85
2021/12/26 03:06:56;;;;;;;;;;;;;;;-6.13;84.41;97851.72;1708960;82;24717;-85
2021/12/26 03:09:13;;;;;;;;;;;;;;;-6.28;84.28;97851.92;1756366;80;22027;-85
2021/12/26 03:11:39;;;;;;;;;;;;;;;-6.44;84.13;97855.09;1765495;80;25959;-86
2021/12/26 03:14:06;;;;;;;;;;;;;;;-6.45;84.07;97854.24;1755200;80;24020;-85
2021/12/26 03:16:32;;;;;;;;;;;;;;;-6.29;84.11;97860.41;1751756;79;20499;-85
2021/12/26 03:18:59;;;;;;;;;;;;;;;-6.17;84.14;97862.81;1747965;81;24809;-85
2021/12/26 03:21:26;;;;;;;;;;;;;;;-6.14;84.14;97866.58;1740823;80;21938;-85
2021/12/26 03:23:52;;;;;;;;;;;;;;;-6.05;84.18;97862.20;1745614;80;26007;-85
2021/12/26 03:26:18;;;;;;;;;;;;;;;-5.89;84.19;97865.83;1740799;81;24412;-85
2021/12/26 03:28:44;;;;;;;;;;;;;;;-5.88;84.17;97870.03;1744833;80;20691;-84
2021/12/26 03:31:10;;;;;;;;;;;;;;;-5.88;84.11;97868.33;1742567;80;24948;-85
2021/12/26 03:33:37;;;;;;;;;;;;;;;-5.82;84.11;97862.28;1744960;81;22054;-85
2021/12/26 03:36:03;;;;;;;;;;;;;;;-5.78;84.08;97862.20;1744226;81;26020;-85
2021/12/26 03:38:29;;;;;;;;;;;;;;;-5.90;83.98;97866.69;1739297;81;24441;-85
2021/12/26 03:40:56;;;;;;;;;;;;;;;-6.08;83.87;97866.50;1749771;80;20233;-85
2021/12/26 03:43:27;;;;;;;;;;;;;;;-6.23;83.75;97866.70;1746094;81;24809;-85
2021/12/26 03:45:55;;;;;;;;;;;;;;;-6.40;83.65;97865.64;1745523;81;22174;-85
2021/12/26 03:48:22;;;;;;;;;;;;;;;-6.55;83.53;97867.09;1751921;81;26020;-85
2021/12/26 03:50:48;;;;;;;;;;;;;;;-6.57;83.46;97871.34;1739073;81;24415;-84
2021/12/26 03:53:14;;;;;;;;;;;;;;;-6.53;83.48;97874.27;1744876;80;20349;-85
2021/12/26 03:55:41;;;;;;;;;;;;;;;-6.61;83.45;97875.64;1733003;81;24853;-84
2021/12/26 03:58:07;;;;;;;;;;;;;;;-6.60;83.43;97879.84;1740118;81;22850;-85
2021/12/26 04:00:34;;;;;;;;;;;;;;;-6.61;83.45;97876.91;1748542;81;26093;-85
2021/12/26 04:03:00;;;;;;;;;;;;;;;-6.54;83.50;97880.20;1746999;81;24410;-85
2021/12/26 04:05:26;;;;;;;;;;;;;;;-6.49;83.56;97883.11;1742307;80;20226;-86
2021/12/26 04:07:52;;;;;;;;;;;;;;;-6.41;83.68;97883.03;1746978;81;24760;-85
2021/12/26 04:10:19;;;;;;;;;;;;;;;-6.36;83.75;97891.03;1728970;81;22118;-86
2021/12/26 04:12:48;;;;;;;;;;;;;;;-6.19;83.87;97887.44;1744862;81;25833;-85
2021/12/26 04:15:14;;;;;;;;;;;;;;;-6.03;83.99;97892.31;1742083;80;24522;-85
2021/12/26 04:17:41;;;;;;;;;;;;;;;-5.89;84.10;97893.85;1741420;81;20304;-85
2021/12/26 04:20:08;;;;;;;;;;;;;;;-5.76;84.16;97901.26;1748936;80;24925;-85
2021/12/26 04:22:34;;;;;;;;;;;;;;;-5.74;84.19;97903.36;1735384;81;22179;-86
2021/12/26 04:25:00;;;;;;;;;;;;;;;-5.90;84.13;97894.70;1739362;81;26560;-86
2021/12/26 04:27:27;;;;;;;;;;;;;;;-5.99;84.08;97905.84;1740814;81;25209;-86
2021/12/26 04:29:53;;;;;;;;;;;;;;;-6.16;84.01;97902.66;1743362;81;20249;-86
2021/12/26 04:32:20;;;;;;;;;;;;;;;-6.27;83.93;97898.97;1743043;81;24735;-86
2021/12/26 04:34:46;;;;;;;;;;;;;;;-6.33;83.88;97905.87;1747425;81;21956;-86
2021/12/26 04:37:12;;;;;;;;;;;;;;;-6.49;83.73;97909.02;1732676;81;25978;-86
2021/12/26 04:39:39;;;;;;;;;;;;;;;-6.59;83.62;97918.43;1730885;81;24989;-85
2021/12/26 04:42:05;;;;;;;;;;;;;;;-6.55;83.58;97912.47;1737016;81;20336;-85
2021/12/26 04:44:32;;;;;;;;;;;;;;;-6.49;83.53;97912.37;1727697;82;24914;-85
2021/12/26 04:46:58;;;;;;;;;;;;;;;-6.53;83.50;97913.28;1728792;81;22036;-85
2021/12/26 04:49:24;;;;;;;;;;;;;;;-6.53;83.45;97918.37;1735387;81;26061;-85
2021/12/26 04:51:50;;;;;;;;;;;;;;;-6.61;83.38;97921.44;1740872;81;25400;-85
2021/12/26 04:54:16;;;;;;;;;;;;;;;-6.65;83.35;97919.77;1735419;81;20234;-85
2021/12/26 04:56:43;;;;;;;;;;;;;;;-6.62;83.32;97913.81;1723770;81;24831;-85
2021/12/26 04:59:09;;;;;;;;;;;;;;;-6.70;83.26;97915.16;1745146;81;22028;-86
2021/12/26 05:01:35;;;;;;;;;;;;;;;-6.79;83.18;97918.64;1742140;81;26174;-85
2021/12/26 05:04:02;;;;;;;;;;;;;;;-6.84;83.13;97920.81;1729675;81;24611;-86
2021/12/26 05:06:28;;;;;;;;;;;;;;;-6.95;83.02;97920.92;1733447;82;20361;-86
2021/12/26 05:08:54;;;;;;;;;;;;;;;-6.92;83.01;97920.87;1739244;81;24781;-86
2021/12/26 05:11:20;;;;;;;;;;;;;;;-6.88;83.01;97921.28;1743854;81;22043;-86
2021/12/26 05:13:47;;;;;;;;;;;;;;;-6.91;82.97;97924.27;1741024;80;25956;-85
2021/12/26 05:16:13;;;;;;;;;;;;;;;-6.94;82.93;97923.03;1736234;80;24476;-85
2021/12/26 05:18:39;;;;;;;;;;;;;;;-6.80;83.01;97925.85;1729344;82;20180;-84
2021/12/26 05:21:05;;;;;;;;;;;;;;;-6.64;83.12;97922.72;1724843;82;24732;-84
2021/12/26 05:23:31;;;;;;;;;;;;;;;-6.50;83.22;97916.23;1726570;82;21961;-85
2021/12/26 05:26:10;;;;;;;;;;;;;;;-6.37;83.33;97921.16;1728940;82;26011;-84
2021/12/26 05:28:36;;;;;;;;;;;;;;;-6.24;83.43;97921.02;1713754;82;24423;-85
2021/12/26 05:31:02;;;;;;;;;;;;;;;-6.11;83.51;97919.56;1721741;82;20216;-85
2021/12/26 05:33:28;;;;;;;;;;;;;;;-6.17;83.54;97923.92;1721576;82;24750;-85
2021/12/26 05:35:54;;;;;;;;;;;;;;;-6.28;83.50;97927.02;1715932;81;22332;-85
2021/12/26 05:38:20;;;;;;;;;;;;;;;-6.40;83.43;97924.17;1706173;82;26054;-85
2021/12/26 05:40:46;;;;;;;;;;;;;;;-6.34;83.46;97919.02;1721633;82;24501;-85
2021/12/26 05:43:12;;;;;;;;;;;;;;;-6.37;83.39;97923.70;1728328;82;20248;-85
2021/12/26 05:45:40;;;;;;;;;;;;;;;-6.60;83.23;97921.83;1715690;82;24815;-85
2021/12/26 05:48:06;;;;;;;;;;;;;;;-6.63;83.13;97921.88;1690672;82;22197;-85
2021/12/26 05:50:32;;;;;;;;;;;;;;;-6.58;83.06;97922.66;1708466;82;26603;-85
2021/12/26 05:52:58;;;;;;;;;;;;;;;-6.61;82.94;97925.26;1713783;82;25276;-85
2021/12/26 05:55:24;;;;;;;;;;;;;;;-6.70;82.79;97921.94;1708428;82;20504;-85
2021/12/26 05:57:54;;;;;;;;;;;;;;;-6.86;82.59;97926.33;1715223;82;24770;-85
2021/12/26 06:00:21;;;;;;;;;;;;;;;-7.00;82.41;97935.37;1712178;82;22073;-84
2021/12/26 06:02:50;;;;;;;;;;;;;;;-7.13;82.16;97926.58;1724108;82;26025;-85
2021/12/26 06:05:15;;;;;;;;;;;;;;;-7.22;81.98;97934.70;1728356;82;23583;-85
2021/12/26 06:07:41;;;;;;;;;;;;;;;-7.33;81.78;97932.67;1719013;82;20152;-85
2021/12/26 06:10:08;;;;;;;;;;;;;;;-7.43;81.61;97935.30;1728510;82;24732;-85
2021/12/26 06:12:34;;;;;;;;;;;;;;;-7.51;81.44;97935.33;1714261;82;22024;-85
2021/12/26 06:15:03;;;;;;;;;;;;;;;-7.56;81.35;97931.13;1698452;82;21406;-85
2021/12/26 06:17:29;;;;;;;;;;;;;;;-7.65;81.19;97924.43;1717428;82;24436;-86
2021/12/26 06:19:55;;;;;;;;;;;;;;;-7.71;81.06;97930.81;1727270;82;20256;-84
2021/12/26 06:22:21;;;;;;;;;;;;;;;-7.80;80.95;97927.07;1729255;81;24819;-84
2021/12/26 06:24:47;;;;;;;;;;;;;;;-7.88;80.83;97924.98;1725458;82;22281;-84
2021/12/26 06:27:13;;;;;;;;;;;;;;;-7.91;80.74;97926.28;1727664;82;26208;-84
2021/12/26 06:29:40;;;;;;;;;;;;;;;-8.00;80.63;97933.50;1728772;81;23921;-84
2021/12/26 06:32:06;;;;;;;;;;;;;;;-8.11;80.51;97932.28;1726709;82;20331;-84
2021/12/26 06:34:32;;;;;;;;;;;;;;;-8.20;80.39;97936.14;1729489;82;24691;-84
2021/12/26 06:36:58;;;;;;;;;;;;;;;-8.32;80.24;97942.98;1729387;81;21974;-84
2021/12/26 06:39:25;;;;;;;;;;;;;;;-8.38;80.13;97951.88;1725080;82;26042;-85
2021/12/26 06:41:54;;;;;;;;;;;;;;;-8.44;80.04;97947.66;1727838;82;24542;-85
2021/12/26 06:44:20;;;;;;;;;;;;;;;-8.44;79.98;97945.55;1720665;82;20952;-85
2021/12/26 06:46:46;;;;;;;;;;;;;;;-8.45;79.94;97948.95;1717571;81;24977;-85
2021/12/26 06:49:14;;;;;;;;;;;;;;;-8.54;79.85;97958.27;1722016;82;22037;-85
2021/12/26 06:51:40;;;;;;;;;;;;;;;-8.63;79.77;97957.02;1726757;82;26650;-83
2021/12/26 06:54:06;;;;;;;;;;;;;;;-8.81;79.60;97962.53;1721457;81;24462;-83
2021/12/26 06:56:33;;;;;;;;;;;;;;;-8.94;79.46;97962.55;1731961;82;20221;-83
2021/12/26 06:59:00;;;;;;;;;;;;;;;-9.01;79.36;97963.41;1735489;81;24751;-83
2021/12/26 07:01:26;;;;;;;;;;;;;;;-9.09;79.24;97965.09;1732599;81;22508;-83
2021/12/26 07:03:53;;;;;;;;;;;;;;;-9.20;79.13;97973.53;1729075;82;26398;-83
2021/12/26 07:06:20;;;;;;;;;;;;;;;-9.28;79.02;97976.08;1714188;82;24378;-83
2021/12/26 07:08:46;;;;;;;;;;;;;;;-9.28;78.99;97983.69;1724256;82;20204;-83
2021/12/26 07:11:14;;;;;;;;;;;;;;;-9.23;78.96;97979.88;1725151;81;24759;-83
2021/12/26 07:13:42;;;;;;;;;;;;;;;-9.20;78.97;97978.59;1726196;82;22810;-83
2021/12/26 07:16:08;;;;;;;;;;;;;;;-9.13;79.02;97986.64;1731460;82;25942;-84
2021/12/26 07:18:34;;;;;;;;;;;;;;;-9.12;79.02;97987.91;1727106;82;20290;-84
2021/12/26 07:21:00;;;;;;;;;;;;;;;-9.11;79.05;97984.96;1727746;82;20199;-85
2021/12/26 07:23:26;;;;;;;;;;;;;;;-9.10;79.09;97987.47;1708064;82;24981;-84
2021/12/26 07:25:53;;;;;;;;;;;;;;;-9.05;79.14;97986.20;1727354;82;22584;-84
2021/12/26 07:28:19;;;;;;;;;;;;;;;-8.98;79.20;97986.21;1735575;82;26131;-84
2021/12/26 07:30:45;;;;;;;;;;;;;;;-8.96;79.24;97984.95;1728424;82;24355;-84
2021/12/26 07:33:11;;;;;;;;;;;;;;;-8.95;79.28;97985.38;1732275;81;20251;-84
2021/12/26 07:35:37;;;;;;;;;;;;;;;-8.85;79.36;97990.86;1732979;81;24765;-84
2021/12/26 07:38:03;;;;;;;;;;;;;;;-8.81;79.42;97990.42;1725531;82;22130;-84
2021/12/26 07:40:29;;;;;;;;;;;;;;;-8.83;79.44;98000.98;1712363;82;26566;-84
2021/12/26 07:42:55;;;;;;;;;;;;;;;-8.82;79.47;98005.20;1726643;82;24227;-84
2021/12/26 07:45:22;;;;;;;;;;;;;;;-8.81;79.52;98002.69;1712073;82;20345;-84
2021/12/26 07:47:48;;;;;;;;;;;;;;;-8.82;79.53;98002.67;1694572;82;24901;-84
2021/12/26 07:50:14;;;;;;;;;;;;;;;-8.77;79.57;98004.78;1726894;82;22054;-84
2021/12/26 07:52:42;;;;;;;;;;;;;;;-8.70;79.63;98007.74;1724242;82;26028;-83
2021/12/26 07:55:13;;;;;;;;;;;;;;;-8.63;79.71;98005.63;1722286;82;24606;-84
2021/12/26 07:57:40;;;;;;;;;;;;;;;-8.57;79.76;98010.70;1727874;82;20263;-84
2021/12/26 08:00:07;;;;;;;;;;;;;;;-8.48;79.83;98019.55;1726354;82;24750;-84
2021/12/26 08:02:34;;;;;;;;;;;;;;;-8.36;79.93;98013.20;1728058;82;22013;-84
2021/12/26 08:05:00;;;;;;;;;;;;;;;-8.33;80.00;98011.91;1706312;82;25847;-84
2021/12/26 08:07:26;;;;;;;;;;;;;;;-8.28;80.06;98011.44;1723016;82;25179;-83
2021/12/26 08:09:52;;;;;;;;;;;;;;;-8.22;80.12;98009.30;1697515;82;20285;-84
2021/12/26 08:12:18;;;;;;;;;;;;;;;-8.20;80.17;98003.81;1659881;85;24832;-83
2021/12/26 08:14:44;;;;;;;;;;;;;;;-8.16;80.24;98000.41;1705233;82;22043;-84
2021/12/26 08:17:11;;;;;;;;;;;;;;;-8.11;80.30;97999.97;1722595;79;25987;-84
2021/12/26 08:19:37;;;;;;;;;;;;;;;-8.17;80.31;98004.64;1742844;81;24491;-84
2021/12/26 08:22:04;;;;;;;;;;;;;;;-8.19;80.33;98011.44;1741439;81;20194;-84
2021/12/26 08:24:30;;;;;;;;;;;;;;;-8.12;80.40;98009.70;1737001;81;24767;-84
2021/12/26 08:26:56;;;;;;;;;;;;;;;-8.17;80.39;98005.06;1731380;81;21996;-84
2021/12/26 08:29:23;;;;;;;;;;;;;;;-8.23;80.39;98006.34;1737695;81;26077;-84
2021/12/26 08:31:50;;;;;;;;;;;;;;;-8.30;80.36;98006.84;1730060;81;24506;-84
2021/12/26 08:34:21;;;;;;;;;;;;;;;-8.26;80.38;98013.98;1745936;81;20740;-83
2021/12/26 08:36:44;;;;;;;;;;;;;;;-8.30;80.35;98011.91;1746703;81;24753;-83
2021/12/26 08:39:10;;;;;;;;;;;;;;;-8.32;80.33;98013.60;1743030;81;22063;-83
2021/12/26 08:41:37;;;;;;;;;;;;;;;-8.35;80.31;98012.77;1741502;81;26022;-83
2021/12/26 08:44:03;;;;;;;;;;;;;;;-8.39;80.29;98011.06;1749114;81;24381;-84
2021/12/26 08:46:29;;;;;;;;;;;;;;;-8.40;80.26;98014.48;1736932;81;20543;-84
2021/12/26 08:48:55;;;;;;;;;;;;;;;-8.32;80.30;98010.22;1732990;81;24800;-84
2021/12/26 08:51:21;;;;;;;;;;;;;;;-8.21;80.36;98008.05;1745487;81;21990;-84
2021/12/26 08:53:48;;;;;;;;;;;;;;;-8.18;80.41;98008.47;1737815;81;25949;-84
2021/12/26 08:56:14;;;;;;;;;;;;;;;-7.95;80.57;97999.06;1750358;81;25005;-84
2021/12/26 08:58:40;;;;;;;;;;;;;;;-7.71;80.72;98004.47;1744637;80;20234;-83
2021/12/26 09:01:06;;;;;;;;;;;;;;;-7.55;80.88;97997.19;1738941;81;24720;-84
2021/12/26 09:03:32;;;;;;;;;;;;;;;-7.46;80.97;98003.48;1733314;81;22005;-84
2021/12/26 09:05:58;;;;;;;;;;;;;;;-7.38;81.06;98008.10;1741447;81;26077;-84
2021/12/26 09:08:24;;;;;;;;;;;;;;;-7.45;81.07;98005.59;1740288;81;24432;-84
2021/12/26 09:10:50;;;;;;;;;;;;;;;-7.50;81.09;98003.08;1735112;81;20251;-84
2021/12/26 09:13:16;;;;;;;;;;;;;;;-7.42;81.17;98008.98;1730681;81;24842;-84
2021/12/26 09:15:42;;;;;;;;;;;;;;;-7.31;81.26;98008.46;1747647;81;21988;-83
2021/12/26 09:18:08;;;;;;;;;;;;;;;-7.27;81.30;98006.77;1736236;81;26047;-84
2021/12/26 09:20:34;;;;;;;;;;;;;;;-7.31;81.29;98001.30;1722117;81;24509;-84
2021/12/26 09:23:04;;;;;;;;;;;;;;;-7.33;81.31;97992.82;1727395;81;20377;-84
2021/12/26 09:25:30;;;;;;;;;;;;;;;-7.33;81.34;97989.86;1772751;79;24901;-84
2021/12/26 09:27:56;;;;;;;;;;;;;;;-7.18;81.42;97991.44;1783872;79;22031;-84
2021/12/26 09:30:22;;;;;;;;;;;;;;;-7.06;81.48;97995.59;1777330;79;26016;-85
2021/12/26 09:32:49;;;;;;;;;;;;;;;-7.00;81.53;97991.74;1783603;79;24453;-85
2021/12/26 09:35:15;;;;;;;;;;;;;;;-6.87;81.64;97992.04;1771097;79;20194;-84
2021/12/26 09:37:43;;;;;;;;;;;;;;;-6.85;81.69;97989.07;1784061;79;24912;-84
2021/12/26 09:40:12;;;;;;;;;;;;;;;-6.91;81.69;97992.50;1778989;79;22056;-84
2021/12/26 09:42:38;;;;;;;;;;;;;;;-6.92;81.72;97983.18;1786723;79;25948;-84
2021/12/26 09:45:05;;;;;;;;;;;;;;;-6.88;81.78;97982.33;1775564;79;24467;-84
2021/12/26 09:47:31;;;;;;;;;;;;;;;-6.71;81.90;97981.33;1773751;79;20241;-84
2021/12/26 09:49:57;;;;;;;;;;;;;;;-6.69;81.95;97980.45;1782378;79;24816;-84
2021/12/26 09:52:24;;;;;;;;;;;;;;;-6.79;81.92;97979.69;1775251;79;21933;-84
2021/12/26 09:54:50;;;;;;;;;;;;;;;-6.81;81.90;97981.39;1778615;79;26053;-84
2021/12/26 09:57:20;;;;;;;;;;;;;;;-6.80;81.89;97989.87;1785174;78;24477;-85
2021/12/26 09:59:47;;;;;;;;;;;;;;;-6.76;81.91;97980.92;1772483;79;20285;-84
2021/12/26 10:02:14;;;;;;;;;;;;;;;-6.77;81.93;97981.80;1763309;79;24872;-84
2021/12/26 10:04:42;;;;;;;;;;;;;;;-6.74;81.92;97980.07;1782644;79;22732;-84
2021/12/26 10:07:11;;;;;;;;;;;;;;;-6.74;81.93;97973.28;1731474;81;26014;-84
2021/12/26 10:09:38;;;;;;;;;;;;;;;-6.69;81.99;97976.63;1736539;81;25571;-84
2021/12/26 10:12:06;;;;;;;;;;;;;;;-6.66;82.01;97975.77;1736506;80;20250;-84
2021/12/26 10:14:35;;;;;;;;;;;;;;;-6.54;82.10;97980.72;1746561;80;24744;-84
2021/12/26 10:17:06;;;;;;;;;;;;;;;-6.55;82.11;97980.33;1703505;82;21874;-85
2021/12/26 10:19:34;;;;;;;;;;;;;;;-6.58;82.11;97981.61;1728314;81;26183;-85
2021/12/26 10:22:01;;;;;;;;;;;;;;;-6.56;82.15;97988.82;1732640;81;25401;-84
2021/12/26 10:24:28;;;;;;;;;;;;;;;-6.42;82.23;97982.73;1743179;81;20198;-84
2021/12/26 10:27:05;;;;;;;;;;;;;;;-6.40;82.29;97981.45;1754045;81;24802;-87
2021/12/26 10:29:33;;;;;;;;;;;;;;;-6.40;82.30;97977.62;1734620;81;22242;-84
2021/12/26 10:32:01;;;;;;;;;;;;;;;-6.35;82.36;97978.00;1737045;82;26032;-84
2021/12/26 10:34:29;;;;;;;;;;;;;;;-6.33;82.38;97972.05;1742460;80;24476;-86
2021/12/26 10:36:58;;;;;;;;;;;;;;;-6.33;82.39;97970.78;1738462;81;20180;-86
2021/12/26 10:39:26;;;;;;;;;;;;;;;-6.31;82.42;97972.43;1743593;81;24904;-84
2021/12/26 10:41:54;;;;;;;;;;;;;;;-6.32;82.41;97973.71;1744099;80;21962;-84
2021/12/26 10:44:24;;;;;;;;;;;;;;;-6.31;82.44;97974.13;1743616;81;26707;-83
2021/12/26 10:46:52;;;;;;;;;;;;;;;-6.26;82.46;97971.11;1744037;81;25198;-85
2021/12/26 10:49:26;;;;;;;;;;;;;;;-6.21;82.49;97968.08;1745059;80;20157;-85
2021/12/26 10:51:52;;;;;;;;;;;;;;;-6.20;82.51;97967.22;1747869;81;24775;-85
2021/12/26 10:54:20;;;;;;;;;;;;;;;-6.29;82.46;97966.06;1737443;81;22044;-85
2021/12/26 10:57:02;;;;;;;;;;;;;;;-6.47;82.37;97963.27;1749968;81;26049;-86
2021/12/26 10:59:29;;;;;;;;;;;;;;;-6.58;82.26;97971.02;1744230;81;24482;-85
2021/12/26 11:01:57;;;;;;;;;;;;;;;-6.60;82.15;97976.98;1755009;80;20185;-86
2021/12/26 11:04:26;;;;;;;;;;;;;;;-6.64;82.09;97981.24;1744974;81;24958;-85
2021/12/26 11:07:04;;;;;;;;;;;;;;;-6.66;82.03;97986.80;1741719;81;22743;-85
2021/12/26 11:09:30;;;;;;;;;;;;;;;-6.77;81.96;97980.53;1740413;81;26073;-87
2021/12/26 11:12:00;;;;;;;;;;;;;;;-6.78;81.89;97979.27;1744012;81;24411;-86
2021/12/26 11:14:26;;;;;;;;;;;;;;;-6.67;81.94;97983.83;1753857;81;20181;-86
2021/12/26 11:16:53;;;;;;;;;;;;;;;-6.61;81.99;97981.66;1739059;81;25540;-85
2021/12/26 11:19:37;;;;;;;;;;;;;;;-6.56;82.04;97977.37;1753872;81;22845;-85
2021/12/26 11:22:03;;;;;;;;;;;;;;;-6.56;82.08;97979.48;1755562;80;26151;-85
2021/12/26 11:24:29;;;;;;;;;;;;;;;-6.50;82.15;97978.16;1746387;80;24402;-85
2021/12/26 11:26:55;;;;;;;;;;;;;;;-6.43;82.21;97978.48;1753803;80;20215;-85
2021/12/26 11:29:21;;;;;;;;;;;;;;;-6.35;82.30;97969.52;1751346;80;24817;-85
2021/12/26 11:31:50;;;;;;;;;;;;;;;-6.21;82.41;97971.89;1752567;81;22073;-84
2021/12/26 11:34:18;;;;;;;;;;;;;;;-6.15;82.51;97969.28;1756333;81;26043;-85
2021/12/26 11:36:45;;;;;;;;;;;;;;;-6.04;82.62;97963.64;1754752;80;24496;-85
2021/12/26 11:39:12;;;;;;;;;;;;;;;-6.01;82.70;97957.25;1748892;80;20514;-85
2021/12/26 11:41:43;;;;;;;;;;;;;;;-5.97;82.76;97962.71;1742922;80;24765;-85
2021/12/26 11:44:23;;;;;;;;;;;;;;;-5.98;82.78;97955.92;1752349;81;21977;-84
2021/12/26 11:47:03;;;;;;;;;;;;;;;-5.96;82.81;97958.03;1758761;80;26255;-85
2021/12/26 11:49:40;;;;;;;;;;;;;;;-6.00;82.82;97953.39;1762413;80;24504;-84
2021/12/26 11:52:24;;;;;;;;;;;;;;;-6.00;82.78;97953.84;1740379;81;20210;-84
2021/12/26 11:55:04;;;;;;;;;;;;;;;-6.01;82.80;97959.37;1751114;80;20248;-85
2021/12/26 11:57:35;;;;;;;;;;;;;;;-5.97;82.81;97966.11;1758318;81;21963;-85
2021/12/26 12:00:06;;;;;;;;;;;;;;;-5.98;82.81;97964.41;1728711;81;26023;-85
2021/12/26 12:02:46;;;;;;;;;;;;;;;-5.93;82.81;97965.63;1739899;80;24620;-85
2021/12/26 12:05:28;;;;;;;;;;;;;;;-5.88;82.84;97963.86;1710301;82;20461;-85
2021/12/26 12:07:56;;;;;;;;;;;;;;;-5.82;82.88;97965.03;1724138;82;24793;-84
2021/12/26 12:10:27;;;;;;;;;;;;;;;-5.72;82.95;97963.20;1712905;81;22083;-84
2021/12/26 12:12:53;;;;;;;;;;;;;;;-5.63;83.04;97965.65;1715393;81;26024;-84
2021/12/26 12:15:22;;;;;;;;;;;;;;;-5.55;83.12;97967.64;1741627;82;20341;-84
2021/12/26 12:17:50;;;;;;;;;;;;;;;-5.44;83.22;97962.39;1718254;81;20340;-85
2021/12/26 12:20:18;;;;;;;;;;;;;;;-5.22;83.38;97967.59;1722903;81;24814;-85
2021/12/26 12:23:02;;;;;;;;;;;;;;;-5.11;83.55;97966.57;1724984;81;21803;-85
2021/12/26 12:25:38;;;;;;;;;;;;;;;-5.06;83.65;97963.95;1729451;81;26179;-84
2021/12/26 12:28:05;;;;;;;;;;;;;;;-5.00;83.75;97957.47;1750403;80;24286;-84
2021/12/26 12:30:36;;;;;;;;;;;;;;;-5.01;83.80;97957.06;1738000;80;20677;-85
2021/12/26 12:33:14;;;;;;;;;;;;;;;-4.94;83.87;97953.55;1747156;80;25512;-84
2021/12/26 12:35:58;;;;;;;;;;;;;;;-5.00;83.87;97956.20;1749392;81;22075;-84
2021/12/26 12:38:29;;;;;;;;;;;;;;;-5.06;83.82;97961.39;1754890;81;25998;-84
2021/12/26 12:40:56;;;;;;;;;;;;;;;-5.20;83.71;97959.50;1748974;81;24619;-84
2021/12/26 12:43:24;;;;;;;;;;;;;;;-5.28;83.59;97957.48;1748237;81;20267;-85
2021/12/26 12:45:56;;;;;;;;;;;;;;;-5.36;83.49;97961.44;1748191;81;25541;-84
2021/12/26 12:48:29;;;;;;;;;;;;;;;-5.46;83.33;97956.06;1742098;81;21974;-84
2021/12/26 12:50:58;;;;;;;;;;;;;;;-5.53;83.21;97948.09;1749129;81;26116;-85
2021/12/26 12:53:42;;;;;;;;;;;;;;;-5.59;83.10;97950.29;1755908;81;24618;-85
2021/12/26 12:56:10;;;;;;;;;;;;;;;-5.60;83.04;97951.58;1745222;81;20204;-85